Time;durP1;ratioP1;P1;durP2;ratioP2;P2;SDS_P1;SDS_P2;PMS_P1;PMS_P2;Temp;Humidity;BMP_temperature;BMP_pressure;BME280_temperature;BME280_humidity;BME280_pressure;Samples;Min_cycle;Max_cycle;Signal;HPM_P1;HPM_P2
2022/10/17 00:02:04;;;;;;;17.40;7.70;;;;;;;5.78;63.14;100803.72;4888857;29;20044;-91
2022/10/17 00:04:30;;;;;;;16.80;7.57;;;;;;;5.88;63.25;100806.59;4915927;29;20040;-91
2022/10/17 00:06:58;;;;;;;19.27;7.78;;;;;;;5.98;62.86;100824.97;4902525;29;20048;-92
2022/10/17 00:09:24;;;;;;;15.27;7.32;;;;;;;5.95;63.10;100832.78;4915583;29;20060;-92
2022/10/17 00:11:50;;;;;;;15.80;7.82;;;;;;;6.05;63.23;100841.94;4884474;29;20040;-92
2022/10/17 00:14:16;;;;;;;16.48;7.55;;;;;;;5.96;63.18;100823.56;4917171;29;20051;-91
2022/10/17 00:16:42;;;;;;;17.48;8.07;;;;;;;6.03;63.45;100833.22;4885120;29;20371;-92
2022/10/17 00:19:08;;;;;;;20.67;8.23;;;;;;;5.93;63.39;100827.63;4884518;29;20067;-92
2022/10/17 00:21:34;;;;;;;14.60;7.85;;;;;;;5.95;63.32;100827.38;4929711;29;20130;-92
2022/10/17 00:24:01;;;;;;;19.98;7.40;;;;;;;5.94;63.11;100831.97;4916866;29;20131;-92
2022/10/17 00:26:30;;;;;;;14.23;7.75;;;;;;;6.32;63.26;100877.44;4900920;29;20787;-92
2022/10/17 00:28:56;;;;;;;19.73;8.30;;;;;;;5.68;63.52;100768.25;4884928;29;20040;-92
2022/10/17 00:31:24;;;;;;;19.08;8.15;;;;;;;6.02;63.45;100830.75;4916388;29;20040;-91
2022/10/17 00:33:51;;;;;;;14.02;8.10;;;;;;;5.93;63.45;100805.06;4917400;29;20696;-92
2022/10/17 00:36:20;;;;;;;14.32;7.55;;;;;;;5.83;63.73;100801.09;4910601;29;20056;-93
2022/10/17 00:38:49;;;;;;;17.52;8.30;;;;;;;5.86;64.07;100806.03;4898335;29;20047;-91
2022/10/17 00:41:18;;;;;;;22.95;8.75;;;;;;;5.70;63.58;100777.00;4885860;29;20115;-91
2022/10/17 00:44:25;;;;;;;18.92;8.60;;;;;;;6.16;63.90;100847.53;4886535;29;20062;-94
2022/10/17 00:46:51;;;;;;;21.73;8.07;;;;;;;5.63;64.18;100774.44;4929759;29;20048;-93
2022/10/17 00:49:18;;;;;;;19.60;8.52;;;;;;;5.44;64.03;100734.19;4913142;29;20048;-92
2022/10/17 00:51:57;;;;;;;18.23;7.47;;;;;;;5.65;64.05;100768.75;4910805;29;20514;-92
2022/10/17 00:54:29;;;;;;;18.10;7.63;;;;;;;5.50;64.43;100741.38;4949322;29;20416;-93
2022/10/17 00:56:58;;;;;;;21.83;8.48;;;;;;;5.51;64.33;100740.28;4917351;29;20507;-92
2022/10/17 00:59:29;;;;;;;23.35;7.82;;;;;;;5.44;64.35;100735.03;4914243;29;20044;-91
2022/10/17 01:02:20;;;;;;;24.80;8.32;;;;;;;5.46;64.67;100741.00;4879795;29;20049;-91
2022/10/17 01:04:53;;;;;;;16.23;7.97;;;;;;;5.47;64.85;100745.38;4909017;29;20091;-94
2022/10/17 01:07:29;;;;;;;21.45;8.18;;;;;;;5.27;64.58;100707.06;4885080;29;20426;-90
2022/10/17 01:09:55;;;;;;;22.05;7.95;;;;;;;5.95;65.05;100811.09;4884901;29;20086;-93
2022/10/17 01:12:27;;;;;;;14.57;7.68;;;;;;;5.96;64.79;100813.56;4883361;29;20064;-91
2022/10/17 01:15:28;;;;;;;14.70;7.78;;;;;;;5.98;64.62;100800.56;4916424;29;20048;-90
2022/10/17 01:18:25;;;;;;;29.70;8.13;;;;;;;5.69;64.61;100747.38;4916552;29;20044;-92
2022/10/17 01:21:23;;;;;;;16.50;7.88;;;;;;;5.44;64.82;100710.63;4907460;29;20116;-94
2022/10/17 01:24:20;;;;;;;15.10;7.82;;;;;;;5.50;64.86;100709.63;4899020;29;20048;-94
2022/10/17 01:27:12;;;;;;;20.65;8.23;;;;;;;5.82;64.83;100758.72;4932422;29;20044;-93
2022/10/17 01:30:11;;;;;;;19.48;7.68;;;;;;;5.87;65.17;100785.97;4882548;29;20048;-93
2022/10/17 01:32:49;;;;;;;16.55;7.80;;;;;;;5.29;65.08;100697.59;4834925;29;20038;-94
2022/10/17 01:35:52;;;;;;;18.20;7.53;;;;;;;5.28;65.17;100703.28;4830201;29;20082;-93
2022/10/17 01:38:49;;;;;;;19.88;7.95;;;;;;;5.21;65.19;100683.63;4856940;29;20056;-95
2022/10/17 01:41:38;;;;;;;22.85;8.35;;;;;;;5.70;65.22;100771.56;4830131;29;20079;-93
2022/10/17 01:44:32;;;;;;;22.58;7.88;;;;;;;5.74;65.27;100761.84;4869535;29;20135;-93
2022/10/17 01:47:15;;;;;;;17.38;7.90;;;;;;;5.19;65.54;100676.53;4850978;29;20043;-92
2022/10/17 01:50:03;;;;;;;14.63;7.65;;;;;;;5.24;65.31;100683.97;4829436;29;20046;-92
2022/10/17 01:52:49;;;;;;;15.73;7.78;;;;;;;5.11;65.28;100651.75;4811349;29;20149;-92
2022/10/17 01:55:25;;;;;;;17.47;7.53;;;;;;;5.72;65.28;100757.75;4821970;29;20046;-93
2022/10/17 01:58:06;;;;;;;13.95;7.05;;;;;;;5.46;65.48;100704.94;4832287;29;20053;-93
2022/10/17 02:00:36;;;;;;;15.65;7.28;;;;;;;5.35;65.46;100690.38;4816751;29;20045;-93
2022/10/17 02:03:10;;;;;;;20.55;7.82;;;;;;;5.51;65.46;100703.13;4816999;29;20057;-93
2022/10/17 02:05:41;;;;;;;14.70;7.28;;;;;;;5.56;65.13;100702.38;4830163;29;20045;-94
2022/10/17 02:08:10;;;;;;;21.63;7.00;;;;;;;5.78;64.93;100743.19;4814145;29;20429;-93
2022/10/17 02:10:56;;;;;;;15.15;7.32;;;;;;;5.73;64.97;100719.53;4868311;29;20053;-94
2022/10/17 02:13:55;;;;;;;22.50;7.97;;;;;;;5.80;64.90;100741.06;4853848;29;20511;-93
2022/10/17 02:16:39;;;;;;;14.80;6.68;;;;;;;5.57;64.72;100698.63;4868346;29;20047;-93
2022/10/17 02:19:29;;;;;;;18.15;7.82;;;;;;;5.63;64.48;100712.03;4851091;29;20040;-92
2022/10/17 02:22:26;;;;;;;17.10;7.20;;;;;;;5.75;64.75;100740.97;4884627;29;20052;-93
2022/10/17 02:25:27;;;;;;;14.40;6.30;;;;;;;5.56;64.79;100696.97;4900019;29;20048;-93
2022/10/17 02:28:11;;;;;;;20.88;7.43;;;;;;;5.44;64.57;100679.97;4918344;29;20099;-92
2022/10/17 02:30:55;;;;;;;14.82;7.20;;;;;;;5.24;64.68;100654.13;4890511;29;20041;-93
2022/10/17 02:33:33;;;;;;;11.93;6.90;;;;;;;5.57;64.63;100690.50;4937425;29;20036;-93
2022/10/17 02:36:06;;;;;;;15.13;7.50;;;;;;;5.39;64.58;100664.41;4903739;29;20039;-92
2022/10/17 02:38:34;;;;;;;14.80;7.38;;;;;;;5.51;64.46;100692.28;4886625;29;20064;-94
2022/10/17 02:41:02;;;;;;;15.85;8.48;;;;;;;5.13;64.44;100619.75;4896455;29;20048;-92
2022/10/17 02:43:29;;;;;;;15.20;7.22;;;;;;;5.56;64.50;100686.13;4888304;29;20036;-94
2022/10/17 02:45:57;;;;;;;16.98;7.32;;;;;;;5.22;64.47;100621.00;4919024;29;20044;-94
2022/10/17 02:48:29;;;;;;;21.33;7.23;;;;;;;5.78;64.21;100716.88;4887648;29;20044;-94
2022/10/17 02:51:10;;;;;;;14.75;7.30;;;;;;;5.47;64.56;100666.72;4888836;29;20190;-93
2022/10/17 02:53:51;;;;;;;13.77;7.00;;;;;;;5.25;64.33;100628.66;4919872;29;20035;-92
2022/10/17 02:56:19;;;;;;;12.60;7.35;;;;;;;5.24;64.23;100620.78;4917641;29;20418;-95
2022/10/17 02:58:52;;;;;;;14.38;7.18;;;;;;;5.26;64.23;100615.91;4914143;29;20535;-94
2022/10/17 03:01:20;;;;;;;19.15;7.20;;;;;;;5.22;64.48;100607.47;4886207;29;20063;-93
2022/10/17 03:03:46;;;;;;;18.77;7.72;;;;;;;5.79;64.19;100701.41;4888143;29;20047;-94
2022/10/17 03:06:13;;;;;;;17.23;7.28;;;;;;;5.34;64.35;100620.94;4892237;29;20047;-92
2022/10/17 03:08:42;;;;;;;26.20;7.87;;;;;;;5.32;64.27;100604.91;4947444;29;20060;-94
2022/10/17 03:11:08;;;;;;;15.05;7.13;;;;;;;5.87;64.32;100682.84;4926016;29;20032;-92
2022/10/17 03:13:34;;;;;;;14.38;7.20;;;;;;;5.59;64.05;100642.22;4937768;29;20032;-93
2022/10/17 03:16:08;;;;;;;15.70;7.10;;;;;;;5.58;64.06;100627.03;4926326;29;20048;-94
2022/10/17 03:18:35;;;;;;;14.27;6.90;;;;;;;5.44;63.91;100601.31;4907040;29;20463;-94
2022/10/17 03:21:06;;;;;;;25.58;7.38;;;;;;;5.75;63.90;100649.53;4902747;29;20078;-93
2022/10/17 03:23:32;;;;;;;13.63;7.18;;;;;;;5.40;64.00;100598.28;4909264;29;20044;-93
2022/10/17 03:26:13;;;;;;;14.80;6.88;;;;;;;5.34;64.14;100583.81;4918254;29;20051;-92
2022/10/17 03:28:39;;;;;;;16.90;7.90;;;;;;;5.67;64.11;100632.88;4884544;29;20510;-94
2022/10/17 03:31:08;;;;;;;17.40;6.78;;;;;;;5.37;63.92;100582.50;4887024;29;20461;-92
2022/10/17 03:33:36;;;;;;;24.38;7.53;;;;;;;5.49;64.10;100609.50;4887182;29;20050;-94
2022/10/17 03:36:11;;;;;;;14.20;7.57;;;;;;;5.35;64.40;100585.44;4887129;29;20051;-93
2022/10/17 03:38:38;;;;;;;16.25;7.18;;;;;;;5.78;64.27;100651.75;4904958;29;20037;-92
2022/10/17 03:41:07;;;;;;;19.02;7.07;;;;;;;5.30;64.37;100568.28;4904638;29;20059;-91
2022/10/17 03:43:34;;;;;;;15.10;7.28;;;;;;;5.24;64.27;100553.81;4918870;29;20052;-93
2022/10/17 03:46:01;;;;;;;14.07;6.75;;;;;;;5.63;64.25;100617.09;4909518;29;20060;-92
2022/10/17 03:48:30;;;;;;;21.70;7.50;;;;;;;5.12;64.52;100531.41;4886343;29;20143;-92
2022/10/17 03:51:00;;;;;;;13.48;7.22;;;;;;;5.18;64.53;100535.84;4890386;29;20076;-94
2022/10/17 03:53:27;;;;;;;15.88;8.55;;;;;;;5.22;64.61;100536.97;4922305;29;20050;-93
2022/10/17 03:55:54;;;;;;;16.13;7.90;;;;;;;5.31;64.48;100559.91;4920435;29;20489;-93
2022/10/17 03:58:20;;;;;;;18.02;8.63;;;;;;;5.31;64.75;100554.47;4917723;29;20044;-91
2022/10/17 04:00:47;;;;;;;18.23;8.43;;;;;;;5.33;64.66;100556.94;4903039;29;20036;-90
2022/10/17 04:03:13;;;;;;;17.37;7.97;;;;;;;5.31;64.92;100559.09;4896383;29;20825;-95
2022/10/17 04:05:39;;;;;;;22.13;9.33;;;;;;;5.21;65.10;100535.34;4903083;29;20150;-89
2022/10/17 04:08:05;;;;;;;21.05;8.60;;;;;;;5.61;64.85;100602.13;4919316;29;20056;-88
2022/10/17 04:10:59;;;;;;;21.45;7.78;;;;;;;5.79;64.76;100631.69;4912680;29;20044;-89
2022/10/17 04:13:25;;;;;;;14.38;7.97;;;;;;;5.74;64.66;100615.34;4901869;29;20031;-90
2022/10/17 04:16:04;;;;;;;23.98;7.07;;;;;;;5.39;64.53;100554.03;4879821;29;20040;-91
2022/10/17 04:18:30;;;;;;;18.48;7.75;;;;;;;5.74;64.69;100598.25;4899943;29;20518;-90
2022/10/17 04:20:56;;;;;;;22.50;8.15;;;;;;;5.44;64.28;100542.47;4892508;29;20032;-89
2022/10/17 04:23:22;;;;;;;15.40;7.47;;;;;;;5.70;64.27;100573.50;4899954;29;20070;-92
2022/10/17 04:25:56;;;;;;;16.67;8.15;;;;;;;5.63;64.01;100540.31;4901918;29;20040;-93
2022/10/17 04:28:22;;;;;;;25.10;8.00;;;;;;;5.85;64.12;100575.59;4901367;29;20040;-93
2022/10/17 04:30:58;;;;;;;19.08;7.93;;;;;;;5.83;64.20;100575.84;4903648;29;20051;-92
2022/10/17 04:33:29;;;;;;;12.80;6.90;;;;;;;5.99;63.83;100600.50;4918306;29;20119;-91
2022/10/17 04:36:00;;;;;;;17.33;7.65;;;;;;;5.47;63.84;100508.63;4916023;29;20057;-92
2022/10/17 04:38:28;;;;;;;24.13;8.15;;;;;;;5.81;64.12;100548.13;4901323;29;20079;-90
2022/10/17 04:41:02;;;;;;;18.00;8.23;;;;;;;5.64;63.94;100529.19;4893547;29;20048;-90
2022/10/17 04:43:31;;;;;;;14.20;7.25;;;;;;;6.05;63.67;100592.19;4899820;29;20047;-92
2022/10/17 04:46:03;;;;;;;19.38;8.02;;;;;;;6.10;63.27;100592.25;4913782;29;20048;-91
2022/10/17 04:48:30;;;;;;;32.47;7.63;;;;;;;5.88;63.29;100534.38;4898204;29;20092;-90
2022/10/17 04:51:02;;;;;;;21.00;7.40;;;;;;;6.00;63.31;100537.84;4915305;29;20115;-94
2022/10/17 04:53:36;;;;;;;16.73;7.75;;;;;;;6.12;63.25;100551.25;4928943;29;20055;-91
2022/10/17 04:56:23;;;;;;;17.85;7.13;;;;;;;5.91;63.21;100501.31;4898023;29;20152;-92
2022/10/17 04:58:50;;;;;;;23.20;8.70;;;;;;;6.24;63.31;100557.41;4888734;29;20510;-93
2022/10/17 05:01:19;;;;;;;24.63;8.48;;;;;;;6.43;63.28;100584.22;4918278;29;20048;-92
2022/10/17 05:03:50;;;;;;;19.63;9.00;;;;;;;6.02;63.19;100511.25;4886376;29;20545;-90
2022/10/17 05:06:19;;;;;;;17.17;7.65;;;;;;;6.25;62.95;100521.00;4917886;29;20040;-90
2022/10/17 05:08:57;;;;;;;13.80;7.30;;;;;;;6.24;62.48;100518.56;4901792;29;20067;-92
2022/10/17 05:11:27;;;;;;;19.48;8.60;;;;;;;6.33;62.81;100531.44;4916147;29;20418;-91
2022/10/17 05:13:55;;;;;;;17.65;8.45;;;;;;;6.46;63.05;100543.81;4916287;29;20214;-92
2022/10/17 05:16:22;;;;;;;18.10;8.75;;;;;;;6.64;62.67;100567.06;4901103;29;20063;-93
2022/10/17 05:18:49;;;;;;;;;;;;;;;6.72;62.68;100572.06;4888025;29;20036;-91
2022/10/17 05:21:16;;;;;;;25.40;8.75;;;;;;;6.76;62.41;100565.03;4902281;29;19919;-93
2022/10/17 05:23:43;;;;;;;20.08;7.78;;;;;;;6.81;62.28;100565.06;4932978;29;20537;-90
2022/10/17 05:26:10;;;;;;;16.98;7.75;;;;;;;6.71;61.94;100556.00;4934075;29;20036;-92
2022/10/17 05:28:36;;;;;;;14.43;7.15;;;;;;;6.45;62.10;100495.97;4885572;29;20040;-92
2022/10/17 05:31:08;;;;;;;12.57;7.18;;;;;;;6.79;62.13;100556.34;4886224;29;20541;-90
2022/10/17 05:33:36;;;;;;;24.77;8.13;;;;;;;6.95;62.42;100570.06;4885483;29;20426;-89
2022/10/17 05:36:03;;;;;;;19.23;7.40;;;;;;;6.88;61.63;100562.13;4886074;29;20143;-91
2022/10/17 05:38:29;;;;;;;16.85;7.82;;;;;;;6.73;62.01;100522.06;4917010;29;20064;-90
2022/10/17 05:41:01;;;;;;;16.13;7.63;;;;;;;6.59;61.39;100490.94;4904840;29;20055;-94
2022/10/17 05:43:28;;;;;;;22.05;8.35;;;;;;;6.83;61.81;100519.44;4907115;29;20048;-92
2022/10/17 05:45:55;;;;;;;22.48;8.20;;;;;;;7.09;61.47;100548.75;4888215;29;20096;-92
2022/10/17 05:48:22;;;;;;;;;;;;;;;7.10;61.30;100550.38;4920848;29;20040;-93
2022/10/17 05:50:49;;;;;;;36.90;8.43;;;;;;;7.04;61.50;100527.75;4937467;29;19923;-92
2022/10/17 05:53:16;;;;;;;21.05;8.25;;;;;;;6.80;60.96;100490.03;4918721;29;20040;-92
2022/10/17 05:55:56;;;;;;;24.75;8.13;;;;;;;7.11;61.73;100512.03;4918649;29;20506;-92
2022/10/17 05:58:23;;;;;;;27.08;8.02;;;;;;;7.03;60.71;100510.63;4916547;29;20470;-92
2022/10/17 06:01:05;;;;;;;18.35;8.80;;;;;;;6.88;60.79;100467.00;4915619;29;20044;-94
2022/10/17 06:03:32;;;;;;;19.40;9.43;;;;;;;7.10;60.94;100491.38;4935068;29;20505;-89
2022/10/17 06:06:04;;;;;;;20.75;7.75;;;;;;;7.49;60.45;100526.44;4905127;29;20113;-92
2022/10/17 06:08:31;;;;;;;29.83;8.18;;;;;;;7.45;60.34;100514.44;4916402;29;20522;-90
2022/10/17 06:11:01;;;;;;;18.00;7.75;;;;;;;7.66;60.25;100516.19;4901286;29;20481;-92
2022/10/17 06:13:28;;;;;;;15.25;7.40;;;;;;;7.67;59.74;100501.50;4918427;29;20462;-94
2022/10/17 06:15:59;;;;;;;25.10;7.80;;;;;;;7.40;59.43;100449.13;4920993;29;20048;-91
2022/10/17 06:18:25;;;;;;;14.93;7.20;;;;;;;7.80;59.43;100483.06;4935860;29;20191;-92
2022/10/17 06:20:52;;;;;;;22.98;7.32;;;;;;;7.84;59.46;100492.31;4914515;29;20043;-91
2022/10/17 06:23:20;;;;;;;22.73;7.15;;;;;;;7.89;58.82;100495.06;4932628;29;20047;-92
2022/10/17 06:26:05;;;;;;;18.38;7.47;;;;;;;7.91;58.39;100509.22;4922370;29;20024;-91
2022/10/17 06:28:32;;;;;;;30.10;8.52;;;;;;;7.72;59.00;100478.94;4920864;29;20024;-90
2022/10/17 06:30:58;;;;;;;19.98;7.70;;;;;;;7.81;59.23;100490.13;4907165;29;20144;-92
2022/10/17 06:33:24;;;;;;;23.23;8.13;;;;;;;7.76;59.40;100471.88;4911169;29;20072;-94
2022/10/17 06:35:56;;;;;;;21.83;7.97;;;;;;;7.94;59.50;100489.63;4912562;29;20054;-93
2022/10/17 06:38:23;;;;;;;17.75;7.97;;;;;;;7.64;59.23;100450.31;4908907;29;20033;-95
2022/10/17 06:40:56;;;;;;;22.40;8.27;;;;;;;7.66;59.17;100456.31;4924546;29;20035;-93
2022/10/17 06:43:22;;;;;;;23.35;8.10;;;;;;;7.59;59.76;100441.34;4908326;29;20033;-95
2022/10/17 06:46:17;;;;;;;21.98;8.07;;;;;;;7.91;59.38;100492.88;4911940;29;20112;-95
2022/10/17 06:48:53;;;;;;;19.25;8.20;;;;;;;7.87;59.44;100476.28;4909397;29;20052;-93
2022/10/17 06:51:36;;;;;;;18.13;7.63;;;;;;;7.92;59.13;100459.16;4926030;29;20020;-93
2022/10/17 06:54:05;;;;;;;17.73;8.00;;;;;;;8.12;58.86;100481.00;4911807;29;20028;-92
2022/10/17 06:56:46;;;;;;;19.50;7.43;;;;;;;8.07;58.73;100437.41;4905941;29;20099;-93
2022/10/17 06:59:31;;;;;;;20.35;7.30;;;;;;;7.99;58.07;100405.25;4924022;29;20116;-93
2022/10/17 07:02:02;;;;;;;15.95;7.43;;;;;;;8.35;57.87;100460.63;4956322;29;20040;-92
2022/10/17 07:04:29;;;;;;;;;;;;;;;8.43;57.46;100453.84;4939142;29;20074;-92
2022/10/17 07:06:55;;;;;;;21.48;7.40;;;;;;;8.15;57.80;100398.75;4943701;29;19911;-91
2022/10/17 07:09:26;;;;;;;22.50;8.20;;;;;;;8.28;57.44;100407.47;4943371;29;20120;-92
2022/10/17 07:11:52;;;;;;;;;;;;;;;8.62;56.95;100456.88;4909522;29;20055;-93
2022/10/17 07:14:18;;;;;;;17.97;7.03;;;;;;;8.43;56.75;100399.34;4901270;29;19923;-93
2022/10/17 07:16:46;;;;;;;15.45;6.68;;;;;;;8.61;56.97;100417.06;4892149;29;20399;-93
2022/10/17 07:19:22;;;;;;;32.97;7.95;;;;;;;8.60;56.37;100396.34;4897128;29;20083;-92
2022/10/17 07:21:49;;;;;;;;;;;;;;;9.07;56.07;100458.78;4895904;29;20572;-93
2022/10/17 07:24:15;;;;;;;14.23;6.90;;;;;;;8.93;55.50;100438.56;4895473;29;19923;-94
2022/10/17 07:26:46;;;;;;;15.07;7.32;;;;;;;8.64;55.30;100379.19;4906157;29;20097;-92
2022/10/17 07:29:12;;;;;;;21.50;7.27;;;;;;;8.86;55.66;100411.59;4890552;29;20036;-93
2022/10/17 07:31:44;;;;;;;13.90;6.85;;;;;;;8.96;55.83;100407.22;4921062;29;20309;-93
2022/10/17 07:34:10;;;;;;;18.77;6.75;;;;;;;8.85;55.21;100374.53;4889527;29;20486;-94
2022/10/17 07:36:36;;;;;;;14.02;7.70;;;;;;;9.18;55.71;100416.72;4889182;29;20044;-93
2022/10/17 07:39:04;;;;;;;18.38;7.57;;;;;;;8.87;55.75;100374.22;4904849;29;20502;-94
2022/10/17 07:41:32;;;;;;;19.33;6.85;;;;;;;8.86;55.92;100367.16;4888245;29;20055;-93
2022/10/17 07:43:59;;;;;;;14.85;5.55;;;;;;;8.73;55.32;100384.06;4888613;29;20040;-94
2022/10/17 07:46:31;;;;;;;24.42;7.65;;;;;;;8.70;55.99;100367.16;4888980;29;20067;-92
2022/10/17 07:48:57;;;;;;;27.97;7.43;;;;;;;8.90;56.07;100396.31;4888653;29;20036;-93
2022/10/17 07:51:25;;;;;;;13.45;7.00;;;;;;;8.94;55.88;100402.06;4903448;29;20051;-93
2022/10/17 07:53:51;;;;;;;31.50;9.45;;;;;;;9.03;55.82;100407.75;4889267;29;20533;-93
2022/10/17 07:56:18;;;;;;;20.20;6.75;;;;;;;8.66;55.56;100349.72;4903795;29;20043;-94
2022/10/17 07:58:44;;;;;;;14.63;7.10;;;;;;;9.00;55.98;100390.03;4887949;29;20127;-92
2022/10/17 08:01:13;;;;;;;29.35;7.90;;;;;;;9.48;55.09;100392.34;4919524;29;20047;-94
2022/10/17 08:03:41;;;;;;;22.08;8.32;;;;;;;9.37;55.92;100399.72;4919065;29;20058;-93
2022/10/17 08:06:07;;;;;;;25.85;8.40;;;;;;;9.24;56.80;100401.16;4919797;29;20075;-91
2022/10/17 08:08:34;;;;;;;18.90;7.43;;;;;;;9.10;58.25;100416.47;4922662;29;20078;-93
2022/10/17 08:11:09;;;;;;;15.25;7.03;;;;;;;9.14;58.60;100421.09;4903810;29;20116;-93
2022/10/17 08:13:36;;;;;;;18.13;8.48;;;;;;;8.99;58.61;100399.31;4903297;29;20050;-93
2022/10/17 08:16:04;;;;;;;;;;;;;;;9.12;58.76;100425.19;4906024;29;20059;-89
2022/10/17 08:18:30;;;;;;;17.83;7.50;;;;;;;8.94;58.82;100400.16;4883236;29;20017;-89
2022/10/17 08:21:01;;;;;;;19.50;7.70;;;;;;;9.08;59.56;100426.84;4882836;29;20123;-90
2022/10/17 08:23:28;;;;;;;25.40;7.53;;;;;;;8.87;58.52;100379.69;4868081;29;20040;-94
2022/10/17 08:25:57;;;;;;;;;;;;;;;9.07;58.73;100412.41;4898907;29;20041;-90
2022/10/17 08:28:23;;;;;;;14.30;6.40;;;;;;;9.12;57.53;100409.63;4898526;29;20397;-90
2022/10/17 08:30:49;;;;;;;19.63;7.13;;;;;;;9.26;58.10;100400.88;4868954;29;20053;-90
2022/10/17 08:33:15;;;;;;;17.05;6.97;;;;;;;9.18;57.09;100361.34;4917362;29;20091;-89
2022/10/17 08:35:42;;;;;;;25.38;7.80;;;;;;;9.41;56.87;100387.19;4916090;29;20124;-90
2022/10/17 08:38:08;;;;;;;26.52;9.40;;;;;;;9.53;56.83;100382.22;4931765;29;20096;-90
2022/10/17 08:40:35;;;;;;;24.67;8.45;;;;;;;9.45;56.70;100355.50;4928950;29;20076;-87
2022/10/17 08:43:04;;;;;;;;;;;;;;;9.60;55.78;100382.75;4913580;29;20057;-90
2022/10/17 08:45:41;;;;;;;18.02;5.93;;;;;;;9.48;55.94;100373.25;4945728;29;19924;-89
2022/10/17 08:48:15;;;;;;;12.10;6.40;;;;;;;9.44;55.93;100385.78;4901070;29;20581;-90
2022/10/17 08:50:50;;;;;;;14.05;6.88;;;;;;;9.47;56.38;100386.06;4920835;29;20058;-91
2022/10/17 08:53:39;;;;;;;14.95;6.55;;;;;;;9.55;56.40;100385.47;4918915;29;20071;-89
2022/10/17 08:56:22;;;;;;;17.23;7.38;;;;;;;9.37;57.21;100369.72;4917475;29;20044;-89
2022/10/17 08:58:49;;;;;;;32.83;10.15;;;;;;;9.25;57.87;100378.22;4898655;29;20045;-90
2022/10/17 09:01:27;;;;;;;23.55;6.40;;;;;;;9.34;58.27;100438.53;4868150;29;20048;-94
2022/10/17 09:04:01;;;;;;;20.58;7.10;;;;;;;9.29;58.93;100420.22;4899205;29;20045;-91
2022/10/17 09:06:36;;;;;;;19.95;7.22;;;;;;;9.25;59.54;100394.59;4906836;29;20041;-92
2022/10/17 09:09:11;;;;;;;26.20;8.13;;;;;;;9.22;60.02;100391.63;4906284;29;20052;-90
2022/10/17 09:12:04;;;;;;;30.30;8.25;;;;;;;9.11;60.53;100407.19;4915027;29;20040;-89
2022/10/17 09:14:51;;;;;;;25.88;7.57;;;;;;;8.96;61.13;100420.84;4897680;29;20048;-87
2022/10/17 09:17:58;;;;;;;24.70;8.10;;;;;;;8.81;63.05;100421.72;4925872;29;20051;-91
2022/10/17 09:20:29;;;;;;;16.88;8.18;;;;;;;8.57;64.16;100399.63;4899696;29;20048;-88
2022/10/17 09:23:05;;;;;;;26.25;8.98;;;;;;;8.53;66.17;100396.63;4898817;29;20052;-87
2022/10/17 09:26:02;;;;;;;23.52;8.82;;;;;;;8.39;68.36;100393.63;4914557;29;20041;-87
2022/10/17 09:28:32;;;;;;;21.35;8.93;;;;;;;8.35;69.69;100405.31;4893004;29;20052;-88
2022/10/17 09:31:03;;;;;;;29.45;8.45;;;;;;;8.08;70.06;100381.88;4896489;29;20040;-94
2022/10/17 09:33:38;;;;;;;25.92;10.02;;;;;;;8.18;71.32;100402.84;4867849;29;20095;-93
2022/10/17 09:36:12;;;;;;;25.48;9.98;;;;;;;8.00;72.03;100382.38;4897543;29;20048;-89
2022/10/17 09:38:44;;;;;;;20.48;10.00;;;;;;;8.05;73.89;100400.66;4896961;29;20137;-92
2022/10/17 09:41:18;;;;;;;22.63;10.40;;;;;;;7.82;74.01;100385.63;4902770;29;20063;-94
2022/10/17 09:43:46;;;;;;;22.13;8.07;;;;;;;7.71;74.32;100369.22;4900209;29;20044;-92
2022/10/17 09:46:23;;;;;;;21.35;10.00;;;;;;;7.91;75.61;100401.16;4882850;29;20075;-90
2022/10/17 09:48:54;;;;;;;23.40;10.00;;;;;;;7.84;74.89;100394.31;4892611;29;20788;-92
2022/10/17 09:51:22;;;;;;;28.13;9.90;;;;;;;7.56;75.61;100346.63;4879099;29;20048;-91
2022/10/17 09:53:54;;;;;;;;;;;;;;;7.96;76.04;100400.34;4902125;29;20048;-93
2022/10/17 09:56:20;;;;;;;26.05;10.70;;;;;;;7.65;76.03;100345.84;4947900;29;19933;-91
2022/10/17 09:58:51;;;;;;;21.73;10.25;;;;;;;7.94;76.25;100375.28;4948100;29;20044;-92
2022/10/17 10:01:22;;;;;;;23.40;10.18;;;;;;;8.04;76.55;100361.69;4901058;29;20048;-91
2022/10/17 10:04:09;;;;;;;22.20;10.18;;;;;;;8.09;76.32;100361.69;4932943;29;20048;-91
2022/10/17 10:06:36;;;;;;;28.80;11.23;;;;;;;8.14;76.15;100358.97;4888439;29;20142;-90
2022/10/17 10:09:04;;;;;;;34.75;11.18;;;;;;;8.05;76.39;100365.25;4921620;29;20058;-89
2022/10/17 10:11:43;;;;;;;22.17;10.75;;;;;;;7.91;76.64;100345.88;4901576;29;20074;-93
2022/10/17 10:14:36;;;;;;;21.30;10.73;;;;;;;7.98;76.57;100358.16;4919934;29;20040;-91
2022/10/17 10:17:24;;;;;;;29.70;10.73;;;;;;;7.95;76.14;100355.16;4884410;29;20051;-92
2022/10/17 10:19:52;;;;;;;22.10;10.32;;;;;;;7.80;76.84;100315.09;4906090;29;20067;-91
2022/10/17 10:22:23;;;;;;;20.15;10.48;;;;;;;8.02;77.24;100335.84;4890295;29;20494;-93
2022/10/17 10:25:16;;;;;;;24.10;11.68;;;;;;;8.15;76.47;100332.56;4937180;29;20083;-91
2022/10/17 10:27:45;;;;;;;22.00;11.32;;;;;;;7.98;76.13;100281.91;4939310;29;20083;-90
2022/10/17 10:30:29;;;;;;;27.23;12.05;;;;;;;8.19;76.30;100317.31;4924900;29;20059;-90
2022/10/17 10:32:59;;;;;;;22.00;10.30;;;;;;;8.41;75.79;100336.97;4948494;29;20099;-91
2022/10/17 10:35:36;;;;;;;17.92;10.85;;;;;;;8.24;75.48;100320.88;4921208;29;20071;-91
2022/10/17 10:38:12;;;;;;;22.27;11.55;;;;;;;8.15;75.58;100294.44;4890069;29;20043;-92
2022/10/17 10:40:47;;;;;;;23.80;9.90;;;;;;;8.02;75.42;100276.75;4920984;29;20043;-91
2022/10/17 10:43:24;;;;;;;21.23;10.38;;;;;;;8.20;75.53;100288.97;4904546;29;20055;-90
2022/10/17 10:45:50;;;;;;;;;;;;;;;8.38;75.46;100304.00;4920854;29;20649;-91
2022/10/17 10:48:24;;;;;;;18.45;10.23;;;;;;;8.38;75.52;100299.34;4920870;29;19922;-91
2022/10/17 10:50:58;;;;;;;13.40;7.68;;;;;;;8.13;74.97;100283.81;4920498;29;20047;-92
2022/10/17 10:53:42;;;;;;;15.18;8.93;;;;;;;8.25;75.30;100316.22;4921148;29;20059;-92
2022/10/17 10:56:20;;;;;;;26.83;10.70;;;;;;;8.32;75.98;100313.22;4920811;29;20047;-90
2022/10/17 10:58:49;;;;;;;28.70;10.95;;;;;;;8.38;75.86;100306.72;4920292;29;20091;-89
2022/10/17 11:01:26;;;;;;;21.55;9.90;;;;;;;8.37;75.54;100302.31;4936357;29;20046;-92
2022/10/17 11:04:05;;;;;;;19.90;9.63;;;;;;;8.15;75.47;100273.47;4900440;29;20072;-90
2022/10/17 11:06:36;;;;;;;26.73;10.55;;;;;;;8.35;75.41;100299.06;4886295;29;20052;-88
2022/10/17 11:09:41;;;;;;;23.35;10.98;;;;;;;8.32;75.28;100272.38;4905192;29;20147;-89
2022/10/17 11:12:18;;;;;;;21.90;9.50;;;;;;;8.19;75.07;100244.59;4935910;29;20505;-88
2022/10/17 11:14:48;;;;;;;;;;;;;;;8.51;74.89;100291.69;4918986;29;20063;-90
2022/10/17 11:17:27;;;;;;;16.58;9.25;;;;;;;8.31;74.75;100260.66;4903763;29;19922;-90
2022/10/17 11:20:06;;;;;;;21.38;11.05;;;;;;;8.42;74.73;100270.47;4918929;29;20425;-90
2022/10/17 11:22:40;;;;;;;22.92;10.73;;;;;;;8.31;75.53;100265.25;4903177;29;20047;-90
2022/10/17 11:25:29;;;;;;;25.33;10.15;;;;;;;8.15;75.01;100238.06;4896983;29;20565;-92
2022/10/17 11:27:55;;;;;;;20.73;10.75;;;;;;;8.32;75.65;100273.19;4931728;29;20040;-92
2022/10/17 11:30:26;;;;;;;19.88;10.45;;;;;;;8.13;75.75;100244.88;4899282;29;20032;-90
2022/10/17 11:32:57;;;;;;;22.77;10.63;;;;;;;8.18;75.71;100248.41;4887631;29;20643;-90
2022/10/17 11:35:31;;;;;;;24.65;11.82;;;;;;;8.03;75.81;100231.25;4918669;29;20071;-89
2022/10/17 11:38:16;;;;;;;21.48;11.45;;;;;;;8.35;75.79;100269.91;4899507;29;20418;-88
2022/10/17 11:40:48;;;;;;;21.88;11.82;;;;;;;8.20;76.09;100229.06;4905319;29;20509;-89
2022/10/17 11:43:23;;;;;;;20.08;11.68;;;;;;;8.17;75.85;100224.16;4918811;29;20116;-89
2022/10/17 11:45:56;;;;;;;31.83;12.18;;;;;;;7.86;75.73;100188.78;4919920;29;20040;-91
2022/10/17 11:48:40;;;;;;;23.13;11.70;;;;;;;8.05;75.85;100213.56;4917873;29;20039;-89
2022/10/17 11:51:12;;;;;;;25.67;12.93;;;;;;;8.23;76.13;100233.94;4935516;29;20398;-92
2022/10/17 11:53:55;;;;;;;27.42;13.10;;;;;;;8.14;76.14;100224.69;4919425;29;20130;-90
2022/10/17 11:57:10;;;;;;;40.05;15.30;;;;;;;8.04;76.28;100211.09;4919798;29;20103;-89